sensor_id;sensor_type;location;lat;lon;timestamp;P1;durP1;ratioP1;P2;durP2;ratioP2
7887;SDS011;3989;48.810;9.208;2022-08-20T00:01:23;1.00;;;1.00;;
7887;SDS011;3989;48.810;9.208;2022-08-20T00:03:51;1.10;;;1.10;;
7887;SDS011;3989;48.810;9.208;2022-08-20T00:06:19;2.25;;;1.10;;
7887;SDS011;3989;48.810;9.208;2022-08-20T00:08:47;2.22;;;0.98;;
7887;SDS011;3989;48.810;9.208;2022-08-20T00:11:15;0.85;;;0.85;;
7887;SDS011;3989;48.810;9.208;2022-08-20T00:13:46;0.88;;;0.88;;
7887;SDS011;3989;48.810;9.208;2022-08-20T00:16:16;0.90;;;0.90;;
7887;SDS011;3989;48.810;9.208;2022-08-20T00:18:44;1.00;;;0.77;;
7887;SDS011;3989;48.810;9.208;2022-08-20T00:21:13;2.15;;;0.90;;
7887;SDS011;3989;48.810;9.208;2022-08-20T00:23:42;0.88;;;0.88;;
7887;SDS011;3989;48.810;9.208;2022-08-20T00:26:11;1.20;;;1.20;;
7887;SDS011;3989;48.810;9.208;2022-08-20T00:28:39;0.93;;;0.93;;
7887;SDS011;3989;48.810;9.208;2022-08-20T00:31:06;1.00;;;1.00;;
7887;SDS011;3989;48.810;9.208;2022-08-20T00:33:35;1.33;;;1.05;;
7887;SDS011;3989;48.810;9.208;2022-08-20T00:36:02;1.00;;;1.00;;
7887;SDS011;3989;48.810;9.208;2022-08-20T00:38:35;1.10;;;1.10;;
7887;SDS011;3989;48.810;9.208;2022-08-20T00:41:02;1.10;;;1.10;;
7887;SDS011;3989;48.810;9.208;2022-08-20T00:43:31;0.93;;;0.93;;
7887;SDS011;3989;48.810;9.208;2022-08-20T00:46:03;0.90;;;0.90;;
7887;SDS011;3989;48.810;9.208;2022-08-20T00:48:32;2.00;;;0.90;;
7887;SDS011;3989;48.810;9.208;2022-08-20T00:51:01;1.67;;;0.80;;
7887;SDS011;3989;48.810;9.208;2022-08-20T00:53:31;1.20;;;1.20;;
7887;SDS011;3989;48.810;9.208;2022-08-20T00:56:00;1.00;;;1.00;;
7887;SDS011;3989;48.810;9.208;2022-08-20T00:58:27;1.15;;;1.05;;
7887;SDS011;3989;48.810;9.208;2022-08-20T01:00:54;0.80;;;0.80;;
7887;SDS011;3989;48.810;9.208;2022-08-20T01:03:21;0.90;;;0.90;;
7887;SDS011;3989;48.810;9.208;2022-08-20T01:05:49;0.80;;;0.80;;
7887;SDS011;3989;48.810;9.208;2022-08-20T01:08:17;0.80;;;0.80;;
7887;SDS011;3989;48.810;9.208;2022-08-20T01:10:46;2.30;;;0.93;;
7887;SDS011;3989;48.810;9.208;2022-08-20T01:13:19;0.90;;;0.90;;
7887;SDS011;3989;48.810;9.208;2022-08-20T01:15:48;0.88;;;0.88;;
7887;SDS011;3989;48.810;9.208;2022-08-20T01:18:18;0.80;;;0.80;;
7887;SDS011;3989;48.810;9.208;2022-08-20T01:20:50;1.20;;;1.20;;
7887;SDS011;3989;48.810;9.208;2022-08-20T01:23:20;0.70;;;0.70;;
7887;SDS011;3989;48.810;9.208;2022-08-20T01:25:57;1.33;;;1.15;;
7887;SDS011;3989;48.810;9.208;2022-08-20T01:28:29;0.80;;;0.80;;
7887;SDS011;3989;48.810;9.208;2022-08-20T01:31:00;1.30;;;1.00;;
7887;SDS011;3989;48.810;9.208;2022-08-20T01:33:27;1.10;;;1.10;;
7887;SDS011;3989;48.810;9.208;2022-08-20T01:35:54;1.20;;;1.10;;
7887;SDS011;3989;48.810;9.208;2022-08-20T01:38:21;0.88;;;0.80;;
7887;SDS011;3989;48.810;9.208;2022-08-20T01:40:54;0.73;;;0.73;;
7887;SDS011;3989;48.810;9.208;2022-08-20T01:43:28;0.88;;;0.88;;
7887;SDS011;3989;48.810;9.208;2022-08-20T01:45:54;0.80;;;0.73;;
7887;SDS011;3989;48.810;9.208;2022-08-20T01:48:21;0.82;;;0.82;;
7887;SDS011;3989;48.810;9.208;2022-08-20T01:50:50;0.80;;;0.80;;
7887;SDS011;3989;48.810;9.208;2022-08-20T01:53:24;0.90;;;0.90;;
7887;SDS011;3989;48.810;9.208;2022-08-20T01:55:59;0.80;;;0.80;;
7887;SDS011;3989;48.810;9.208;2022-08-20T01:58:26;1.00;;;0.90;;
7887;SDS011;3989;48.810;9.208;2022-08-20T02:00:53;0.82;;;0.82;;
7887;SDS011;3989;48.810;9.208;2022-08-20T02:03:20;0.90;;;0.90;;
7887;SDS011;3989;48.810;9.208;2022-08-20T02:05:47;1.38;;;1.00;;
7887;SDS011;3989;48.810;9.208;2022-08-20T02:08:14;0.82;;;0.82;;
7887;SDS011;3989;48.810;9.208;2022-08-20T02:10:40;0.90;;;0.90;;
7887;SDS011;3989;48.810;9.208;2022-08-20T02:13:11;0.90;;;0.90;;
7887;SDS011;3989;48.810;9.208;2022-08-20T02:15:38;4.53;;;0.90;;
7887;SDS011;3989;48.810;9.208;2022-08-20T02:18:05;0.77;;;0.77;;
7887;SDS011;3989;48.810;9.208;2022-08-20T02:20:34;1.55;;;0.80;;
7887;SDS011;3989;48.810;9.208;2022-08-20T02:23:01;0.77;;;0.77;;
7887;SDS011;3989;48.810;9.208;2022-08-20T02:25:29;0.82;;;0.80;;
7887;SDS011;3989;48.810;9.208;2022-08-20T02:27:58;1.80;;;0.93;;
7887;SDS011;3989;48.810;9.208;2022-08-20T02:30:28;0.90;;;0.90;;
7887;SDS011;3989;48.810;9.208;2022-08-20T02:32:58;1.02;;;0.93;;
7887;SDS011;3989;48.810;9.208;2022-08-20T02:35:26;0.98;;;0.98;;
7887;SDS011;3989;48.810;9.208;2022-08-20T02:37:53;1.10;;;1.00;;
7887;SDS011;3989;48.810;9.208;2022-08-20T02:40:20;1.13;;;1.02;;
7887;SDS011;3989;48.810;9.208;2022-08-20T02:42:50;0.90;;;0.90;;
7887;SDS011;3989;48.810;9.208;2022-08-20T02:45:17;0.90;;;0.90;;
7887;SDS011;3989;48.810;9.208;2022-08-20T02:47:45;0.70;;;0.70;;
7887;SDS011;3989;48.810;9.208;2022-08-20T02:50:12;1.38;;;1.08;;
7887;SDS011;3989;48.810;9.208;2022-08-20T02:52:41;0.90;;;0.90;;
7887;SDS011;3989;48.810;9.208;2022-08-20T02:55:09;1.42;;;1.13;;
7887;SDS011;3989;48.810;9.208;2022-08-20T02:57:37;0.90;;;0.90;;
7887;SDS011;3989;48.810;9.208;2022-08-20T03:00:06;1.00;;;1.00;;
7887;SDS011;3989;48.810;9.208;2022-08-20T03:02:35;1.15;;;1.02;;
7887;SDS011;3989;48.810;9.208;2022-08-20T03:05:03;0.80;;;0.80;;
7887;SDS011;3989;48.810;9.208;2022-08-20T03:07:30;1.92;;;1.05;;
7887;SDS011;3989;48.810;9.208;2022-08-20T03:09:57;0.80;;;0.80;;
7887;SDS011;3989;48.810;9.208;2022-08-20T03:12:23;3.10;;;1.67;;
7887;SDS011;3989;48.810;9.208;2022-08-20T03:14:50;1.13;;;1.13;;
7887;SDS011;3989;48.810;9.208;2022-08-20T03:17:17;1.05;;;1.05;;
7887;SDS011;3989;48.810;9.208;2022-08-20T03:19:43;1.00;;;1.00;;
7887;SDS011;3989;48.810;9.208;2022-08-20T03:22:11;0.90;;;0.90;;
7887;SDS011;3989;48.810;9.208;2022-08-20T03:24:38;1.17;;;1.17;;
7887;SDS011;3989;48.810;9.208;2022-08-20T03:27:04;1.20;;;1.20;;
7887;SDS011;3989;48.810;9.208;2022-08-20T03:29:31;1.10;;;1.10;;
7887;SDS011;3989;48.810;9.208;2022-08-20T03:31:58;1.77;;;1.00;;
7887;SDS011;3989;48.810;9.208;2022-08-20T03:34:24;1.15;;;1.13;;
7887;SDS011;3989;48.810;9.208;2022-08-20T03:36:51;1.13;;;1.13;;
7887;SDS011;3989;48.810;9.208;2022-08-20T03:39:19;1.08;;;1.00;;
7887;SDS011;3989;48.810;9.208;2022-08-20T03:41:46;1.45;;;1.40;;
7887;SDS011;3989;48.810;9.208;2022-08-20T03:44:12;1.60;;;1.10;;
7887;SDS011;3989;48.810;9.208;2022-08-20T03:46:39;1.23;;;1.23;;
7887;SDS011;3989;48.810;9.208;2022-08-20T03:49:05;1.50;;;1.50;;
7887;SDS011;3989;48.810;9.208;2022-08-20T03:51:32;1.27;;;1.17;;
7887;SDS011;3989;48.810;9.208;2022-08-20T03:53:59;1.20;;;1.20;;
7887;SDS011;3989;48.810;9.208;2022-08-20T03:56:27;1.73;;;1.63;;
7887;SDS011;3989;48.810;9.208;2022-08-20T03:58:53;3.00;;;2.80;;
7887;SDS011;3989;48.810;9.208;2022-08-20T04:01:20;2.42;;;1.65;;
7887;SDS011;3989;48.810;9.208;2022-08-20T04:03:47;1.80;;;1.70;;
7887;SDS011;3989;48.810;9.208;2022-08-20T04:06:13;2.38;;;2.17;;
7887;SDS011;3989;48.810;9.208;2022-08-20T04:08:40;2.63;;;2.42;;
7887;SDS011;3989;48.810;9.208;2022-08-20T04:11:07;1.85;;;1.75;;
7887;SDS011;3989;48.810;9.208;2022-08-20T04:13:35;1.60;;;1.55;;
7887;SDS011;3989;48.810;9.208;2022-08-20T04:16:02;1.48;;;1.48;;
7887;SDS011;3989;48.810;9.208;2022-08-20T04:18:33;2.15;;;1.38;;
7887;SDS011;3989;48.810;9.208;2022-08-20T04:21:01;1.30;;;1.30;;
7887;SDS011;3989;48.810;9.208;2022-08-20T04:23:29;1.27;;;1.27;;
7887;SDS011;3989;48.810;9.208;2022-08-20T04:25:55;1.60;;;1.60;;
7887;SDS011;3989;48.810;9.208;2022-08-20T04:28:22;2.72;;;1.50;;
7887;SDS011;3989;48.810;9.208;2022-08-20T04:30:52;1.50;;;1.40;;
7887;SDS011;3989;48.810;9.208;2022-08-20T04:33:20;1.60;;;1.50;;
7887;SDS011;3989;48.810;9.208;2022-08-20T04:35:48;1.40;;;1.40;;
7887;SDS011;3989;48.810;9.208;2022-08-20T04:38:16;1.90;;;1.80;;
7887;SDS011;3989;48.810;9.208;2022-08-20T04:40:44;1.77;;;1.67;;
7887;SDS011;3989;48.810;9.208;2022-08-20T04:43:22;1.88;;;1.77;;
7887;SDS011;3989;48.810;9.208;2022-08-20T04:45:51;1.50;;;1.50;;
7887;SDS011;3989;48.810;9.208;2022-08-20T04:48:21;1.55;;;1.45;;
7887;SDS011;3989;48.810;9.208;2022-08-20T04:50:51;1.80;;;1.70;;
7887;SDS011;3989;48.810;9.208;2022-08-20T04:53:18;1.70;;;1.60;;
7887;SDS011;3989;48.810;9.208;2022-08-20T04:55:47;1.92;;;1.83;;
7887;SDS011;3989;48.810;9.208;2022-08-20T04:58:16;1.73;;;1.65;;
7887;SDS011;3989;48.810;9.208;2022-08-20T05:00:45;2.33;;;1.80;;
7887;SDS011;3989;48.810;9.208;2022-08-20T05:03:14;1.67;;;1.58;;
7887;SDS011;3989;48.810;9.208;2022-08-20T05:05:41;2.00;;;1.90;;
7887;SDS011;3989;48.810;9.208;2022-08-20T05:08:09;1.80;;;1.70;;
7887;SDS011;3989;48.810;9.208;2022-08-20T05:10:36;1.70;;;1.70;;
7887;SDS011;3989;48.810;9.208;2022-08-20T05:13:03;1.88;;;1.77;;
7887;SDS011;3989;48.810;9.208;2022-08-20T05:15:29;2.22;;;2.10;;
7887;SDS011;3989;48.810;9.208;2022-08-20T05:17:57;1.95;;;1.83;;
7887;SDS011;3989;48.810;9.208;2022-08-20T05:20:27;2.13;;;1.90;;
7887;SDS011;3989;48.810;9.208;2022-08-20T05:22:56;2.20;;;2.10;;
7887;SDS011;3989;48.810;9.208;2022-08-20T05:25:23;1.63;;;1.52;;
7887;SDS011;3989;48.810;9.208;2022-08-20T05:27:54;1.98;;;1.88;;
7887;SDS011;3989;48.810;9.208;2022-08-20T05:30:22;2.33;;;2.13;;
7887;SDS011;3989;48.810;9.208;2022-08-20T05:32:49;2.00;;;1.90;;
7887;SDS011;3989;48.810;9.208;2022-08-20T05:35:15;2.00;;;1.90;;
7887;SDS011;3989;48.810;9.208;2022-08-20T05:37:43;2.00;;;1.90;;
7887;SDS011;3989;48.810;9.208;2022-08-20T05:40:11;2.15;;;2.05;;
7887;SDS011;3989;48.810;9.208;2022-08-20T05:42:40;2.15;;;2.05;;
7887;SDS011;3989;48.810;9.208;2022-08-20T05:45:07;2.30;;;2.20;;
7887;SDS011;3989;48.810;9.208;2022-08-20T05:47:37;2.20;;;2.00;;
7887;SDS011;3989;48.810;9.208;2022-08-20T05:50:05;2.47;;;2.30;;
7887;SDS011;3989;48.810;9.208;2022-08-20T05:52:33;2.88;;;2.55;;
7887;SDS011;3989;48.810;9.208;2022-08-20T05:55:01;3.40;;;3.10;;
7887;SDS011;3989;48.810;9.208;2022-08-20T05:57:27;2.80;;;2.60;;
7887;SDS011;3989;48.810;9.208;2022-08-20T05:59:54;3.35;;;3.05;;
7887;SDS011;3989;48.810;9.208;2022-08-20T06:02:20;2.80;;;2.60;;
7887;SDS011;3989;48.810;9.208;2022-08-20T06:05:04;2.65;;;2.50;;
7887;SDS011;3989;48.810;9.208;2022-08-20T06:07:31;4.22;;;3.83;;
7887;SDS011;3989;48.810;9.208;2022-08-20T06:09:59;3.20;;;3.00;;
7887;SDS011;3989;48.810;9.208;2022-08-20T06:12:27;3.22;;;2.90;;
7887;SDS011;3989;48.810;9.208;2022-08-20T06:14:53;3.20;;;2.85;;
7887;SDS011;3989;48.810;9.208;2022-08-20T06:17:20;3.10;;;2.50;;
7887;SDS011;3989;48.810;9.208;2022-08-20T06:19:46;3.70;;;2.63;;
7887;SDS011;3989;48.810;9.208;2022-08-20T06:22:13;4.20;;;2.97;;
7887;SDS011;3989;48.810;9.208;2022-08-20T06:24:41;2.85;;;2.65;;
7887;SDS011;3989;48.810;9.208;2022-08-20T06:27:11;2.75;;;2.53;;
7887;SDS011;3989;48.810;9.208;2022-08-20T06:29:39;2.53;;;2.35;;
7887;SDS011;3989;48.810;9.208;2022-08-20T06:32:06;2.92;;;2.78;;
7887;SDS011;3989;48.810;9.208;2022-08-20T06:34:33;4.75;;;2.72;;
7887;SDS011;3989;48.810;9.208;2022-08-20T06:37:00;3.33;;;3.03;;
7887;SDS011;3989;48.810;9.208;2022-08-20T06:39:27;2.63;;;2.47;;
7887;SDS011;3989;48.810;9.208;2022-08-20T06:41:55;2.50;;;2.40;;
7887;SDS011;3989;48.810;9.208;2022-08-20T06:44:23;2.28;;;2.08;;
7887;SDS011;3989;48.810;9.208;2022-08-20T06:46:52;2.97;;;2.78;;
7887;SDS011;3989;48.810;9.208;2022-08-20T06:49:19;2.50;;;2.40;;
7887;SDS011;3989;48.810;9.208;2022-08-20T06:51:45;2.50;;;2.40;;
7887;SDS011;3989;48.810;9.208;2022-08-20T06:54:12;2.70;;;2.60;;
7887;SDS011;3989;48.810;9.208;2022-08-20T06:56:42;2.70;;;2.30;;
7887;SDS011;3989;48.810;9.208;2022-08-20T06:59:09;3.58;;;3.15;;
7887;SDS011;3989;48.810;9.208;2022-08-20T07:01:37;2.88;;;2.67;;
7887;SDS011;3989;48.810;9.208;2022-08-20T07:04:07;2.85;;;2.67;;
7887;SDS011;3989;48.810;9.208;2022-08-20T07:06:33;4.03;;;3.00;;
7887;SDS011;3989;48.810;9.208;2022-08-20T07:09:00;2.88;;;2.30;;
7887;SDS011;3989;48.810;9.208;2022-08-20T07:11:26;2.53;;;2.33;;
7887;SDS011;3989;48.810;9.208;2022-08-20T07:13:53;2.28;;;2.15;;
7887;SDS011;3989;48.810;9.208;2022-08-20T07:16:20;2.40;;;2.30;;
7887;SDS011;3989;48.810;9.208;2022-08-20T07:18:48;4.75;;;2.00;;
7887;SDS011;3989;48.810;9.208;2022-08-20T07:21:14;2.17;;;2.08;;
7887;SDS011;3989;48.810;9.208;2022-08-20T07:23:44;2.28;;;2.10;;
7887;SDS011;3989;48.810;9.208;2022-08-20T07:26:13;2.10;;;2.00;;
7887;SDS011;3989;48.810;9.208;2022-08-20T07:28:40;2.13;;;2.03;;
7887;SDS011;3989;48.810;9.208;2022-08-20T07:31:06;2.15;;;2.00;;
7887;SDS011;3989;48.810;9.208;2022-08-20T07:33:52;2.05;;;1.95;;
7887;SDS011;3989;48.810;9.208;2022-08-20T07:36:19;2.10;;;2.00;;
7887;SDS011;3989;48.810;9.208;2022-08-20T07:38:45;3.70;;;2.58;;
7887;SDS011;3989;48.810;9.208;2022-08-20T07:41:15;2.00;;;1.90;;
7887;SDS011;3989;48.810;9.208;2022-08-20T07:43:42;2.03;;;1.92;;
7887;SDS011;3989;48.810;9.208;2022-08-20T07:46:10;2.67;;;2.53;;
7887;SDS011;3989;48.810;9.208;2022-08-20T07:48:39;2.30;;;2.10;;
7887;SDS011;3989;48.810;9.208;2022-08-20T07:51:12;1.50;;;1.50;;
7887;SDS011;3989;48.810;9.208;2022-08-20T07:53:42;2.30;;;2.20;;
7887;SDS011;3989;48.810;9.208;2022-08-20T07:56:12;2.03;;;1.90;;
7887;SDS011;3989;48.810;9.208;2022-08-20T07:58:41;1.60;;;1.60;;
7887;SDS011;3989;48.810;9.208;2022-08-20T08:01:13;1.83;;;1.83;;
7887;SDS011;3989;48.810;9.208;2022-08-20T08:03:40;2.00;;;1.90;;
7887;SDS011;3989;48.810;9.208;2022-08-20T08:06:07;2.20;;;2.10;;
7887;SDS011;3989;48.810;9.208;2022-08-20T08:08:35;2.08;;;1.98;;
7887;SDS011;3989;48.810;9.208;2022-08-20T08:11:03;2.10;;;2.00;;
7887;SDS011;3989;48.810;9.208;2022-08-20T08:13:32;2.17;;;2.08;;
7887;SDS011;3989;48.810;9.208;2022-08-20T08:16:03;1.85;;;1.75;;
7887;SDS011;3989;48.810;9.208;2022-08-20T08:18:34;2.17;;;2.08;;
7887;SDS011;3989;48.810;9.208;2022-08-20T08:21:04;1.73;;;1.63;;
7887;SDS011;3989;48.810;9.208;2022-08-20T08:23:32;2.00;;;1.90;;
7887;SDS011;3989;48.810;9.208;2022-08-20T08:26:01;2.25;;;2.00;;
7887;SDS011;3989;48.810;9.208;2022-08-20T08:28:27;2.38;;;2.28;;
7887;SDS011;3989;48.810;9.208;2022-08-20T08:30:54;1.55;;;1.50;;
7887;SDS011;3989;48.810;9.208;2022-08-20T08:33:22;1.90;;;1.80;;
7887;SDS011;3989;48.810;9.208;2022-08-20T08:35:52;2.13;;;2.03;;
7887;SDS011;3989;48.810;9.208;2022-08-20T08:38:20;2.10;;;2.00;;
7887;SDS011;3989;48.810;9.208;2022-08-20T08:40:47;2.63;;;2.53;;
7887;SDS011;3989;48.810;9.208;2022-08-20T08:43:16;3.38;;;2.35;;
7887;SDS011;3989;48.810;9.208;2022-08-20T08:45:46;2.00;;;1.90;;
7887;SDS011;3989;48.810;9.208;2022-08-20T08:48:19;2.70;;;2.50;;
7887;SDS011;3989;48.810;9.208;2022-08-20T08:50:48;2.40;;;2.30;;
7887;SDS011;3989;48.810;9.208;2022-08-20T08:53:17;2.42;;;2.33;;
7887;SDS011;3989;48.810;9.208;2022-08-20T08:55:47;2.40;;;2.30;;
7887;SDS011;3989;48.810;9.208;2022-08-20T08:58:13;2.58;;;2.20;;
7887;SDS011;3989;48.810;9.208;2022-08-20T09:00:41;2.20;;;2.10;;
7887;SDS011;3989;48.810;9.208;2022-08-20T09:03:11;2.40;;;2.30;;
7887;SDS011;3989;48.810;9.208;2022-08-20T09:05:45;2.63;;;2.42;;
7887;SDS011;3989;48.810;9.208;2022-08-20T09:08:16;2.70;;;2.50;;
7887;SDS011;3989;48.810;9.208;2022-08-20T09:10:48;2.33;;;2.22;;
7887;SDS011;3989;48.810;9.208;2022-08-20T09:13:14;2.53;;;2.42;;
7887;SDS011;3989;48.810;9.208;2022-08-20T09:15:42;2.25;;;2.15;;
7887;SDS011;3989;48.810;9.208;2022-08-20T09:18:10;2.15;;;2.05;;
7887;SDS011;3989;48.810;9.208;2022-08-20T09:20:36;2.40;;;2.30;;
7887;SDS011;3989;48.810;9.208;2022-08-20T09:23:03;2.53;;;2.00;;
7887;SDS011;3989;48.810;9.208;2022-08-20T09:25:30;2.20;;;1.98;;
7887;SDS011;3989;48.810;9.208;2022-08-20T09:27:57;2.35;;;2.25;;
7887;SDS011;3989;48.810;9.208;2022-08-20T09:30:24;2.35;;;1.60;;
7887;SDS011;3989;48.810;9.208;2022-08-20T09:32:56;2.33;;;2.22;;
7887;SDS011;3989;48.810;9.208;2022-08-20T09:35:24;2.10;;;2.00;;
7887;SDS011;3989;48.810;9.208;2022-08-20T09:37:51;1.70;;;1.60;;
7887;SDS011;3989;48.810;9.208;2022-08-20T09:40:18;1.40;;;1.40;;
7887;SDS011;3989;48.810;9.208;2022-08-20T09:42:45;1.10;;;1.10;;
7887;SDS011;3989;48.810;9.208;2022-08-20T09:45:12;1.85;;;0.95;;
7887;SDS011;3989;48.810;9.208;2022-08-20T09:47:39;1.20;;;1.20;;
7887;SDS011;3989;48.810;9.208;2022-08-20T09:50:08;1.30;;;1.20;;
7887;SDS011;3989;48.810;9.208;2022-08-20T09:52:35;1.48;;;1.48;;
7887;SDS011;3989;48.810;9.208;2022-08-20T09:55:07;1.40;;;1.30;;
7887;SDS011;3989;48.810;9.208;2022-08-20T09:57:43;1.40;;;1.25;;
7887;SDS011;3989;48.810;9.208;2022-08-20T10:00:10;1.38;;;1.38;;
7887;SDS011;3989;48.810;9.208;2022-08-20T10:02:37;1.15;;;1.15;;
7887;SDS011;3989;48.810;9.208;2022-08-20T10:05:04;1.70;;;1.60;;
7887;SDS011;3989;48.810;9.208;2022-08-20T10:07:33;1.20;;;1.10;;
7887;SDS011;3989;48.810;9.208;2022-08-20T10:09:59;2.15;;;1.00;;
7887;SDS011;3989;48.810;9.208;2022-08-20T10:12:26;0.90;;;0.90;;
7887;SDS011;3989;48.810;9.208;2022-08-20T10:14:53;0.85;;;0.85;;
7887;SDS011;3989;48.810;9.208;2022-08-20T10:17:20;1.15;;;1.15;;
7887;SDS011;3989;48.810;9.208;2022-08-20T10:19:47;1.33;;;1.20;;
7887;SDS011;3989;48.810;9.208;2022-08-20T10:22:14;1.60;;;1.20;;
7887;SDS011;3989;48.810;9.208;2022-08-20T10:24:54;1.20;;;1.20;;
7887;SDS011;3989;48.810;9.208;2022-08-20T10:27:24;1.95;;;1.20;;
7887;SDS011;3989;48.810;9.208;2022-08-20T10:29:51;1.30;;;1.13;;
7887;SDS011;3989;48.810;9.208;2022-08-20T10:32:19;0.82;;;0.60;;
7887;SDS011;3989;48.810;9.208;2022-08-20T10:34:47;0.40;;;0.40;;
7887;SDS011;3989;48.810;9.208;2022-08-20T10:37:14;0.43;;;0.43;;
7887;SDS011;3989;48.810;9.208;2022-08-20T10:39:42;0.50;;;0.50;;
7887;SDS011;3989;48.810;9.208;2022-08-20T10:42:11;0.40;;;0.40;;
7887;SDS011;3989;48.810;9.208;2022-08-20T10:44:38;0.50;;;0.50;;
7887;SDS011;3989;48.810;9.208;2022-08-20T10:47:15;0.40;;;0.40;;
7887;SDS011;3989;48.810;9.208;2022-08-20T10:49:44;0.50;;;0.50;;
7887;SDS011;3989;48.810;9.208;2022-08-20T10:52:11;0.65;;;0.60;;
7887;SDS011;3989;48.810;9.208;2022-08-20T10:54:37;0.60;;;0.60;;
7887;SDS011;3989;48.810;9.208;2022-08-20T10:57:06;1.08;;;0.82;;
7887;SDS011;3989;48.810;9.208;2022-08-20T10:59:38;0.82;;;0.82;;
7887;SDS011;3989;48.810;9.208;2022-08-20T11:02:08;0.55;;;0.55;;
7887;SDS011;3989;48.810;9.208;2022-08-20T11:04:49;0.50;;;0.50;;
7887;SDS011;3989;48.810;9.208;2022-08-20T11:07:49;0.38;;;0.38;;
7887;SDS011;3989;48.810;9.208;2022-08-20T11:10:19;0.47;;;0.47;;
7887;SDS011;3989;48.810;9.208;2022-08-20T11:12:57;0.70;;;0.70;;
7887;SDS011;3989;48.810;9.208;2022-08-20T11:15:53;0.40;;;0.40;;
7887;SDS011;3989;48.810;9.208;2022-08-20T11:18:38;0.88;;;0.50;;
7887;SDS011;3989;48.810;9.208;2022-08-20T11:21:12;0.70;;;0.70;;
7887;SDS011;3989;48.810;9.208;2022-08-20T11:26:38;0.40;;;0.40;;
7887;SDS011;3989;48.810;9.208;2022-08-20T11:29:17;1.33;;;0.65;;
7887;SDS011;3989;48.810;9.208;2022-08-20T11:38:07;0.50;;;0.50;;
7887;SDS011;3989;48.810;9.208;2022-08-20T11:40:42;0.50;;;0.50;;
7887;SDS011;3989;48.810;9.208;2022-08-20T11:43:47;0.50;;;0.50;;
7887;SDS011;3989;48.810;9.208;2022-08-20T11:46:17;0.95;;;0.47;;
7887;SDS011;3989;48.810;9.208;2022-08-20T11:48:55;0.32;;;0.32;;
7887;SDS011;3989;48.810;9.208;2022-08-20T11:51:27;0.50;;;0.50;;
7887;SDS011;3989;48.810;9.208;2022-08-20T11:54:01;0.30;;;0.30;;
7887;SDS011;3989;48.810;9.208;2022-08-20T11:56:49;0.52;;;0.40;;
7887;SDS011;3989;48.810;9.208;2022-08-20T11:59:50;0.45;;;0.45;;
7887;SDS011;3989;48.810;9.208;2022-08-20T12:02:48;0.50;;;0.50;;
7887;SDS011;3989;48.810;9.208;2022-08-20T12:12:30;0.38;;;0.38;;
7887;SDS011;3989;48.810;9.208;2022-08-20T12:15:08;0.50;;;0.50;;
7887;SDS011;3989;48.810;9.208;2022-08-20T12:23:29;0.60;;;0.60;;
7887;SDS011;3989;48.810;9.208;2022-08-20T12:24:31;0.63;;;0.63;;
7887;SDS011;3989;48.810;9.208;2022-08-20T12:27:07;0.60;;;0.60;;
7887;SDS011;3989;48.810;9.208;2022-08-20T12:33:22;0.57;;;0.57;;
7887;SDS011;3989;48.810;9.208;2022-08-20T12:36:01;0.45;;;0.45;;
7887;SDS011;3989;48.810;9.208;2022-08-20T12:38:42;0.70;;;0.70;;
7887;SDS011;3989;48.810;9.208;2022-08-20T12:41:19;0.50;;;0.50;;
7887;SDS011;3989;48.810;9.208;2022-08-20T12:44:22;0.70;;;0.70;;
7887;SDS011;3989;48.810;9.208;2022-08-20T12:46:57;0.90;;;0.90;;
7887;SDS011;3989;48.810;9.208;2022-08-20T12:49:40;1.02;;;1.02;;
7887;SDS011;3989;48.810;9.208;2022-08-20T12:52:19;0.88;;;0.88;;
7887;SDS011;3989;48.810;9.208;2022-08-20T12:55:02;0.70;;;0.70;;
7887;SDS011;3989;48.810;9.208;2022-08-20T12:58:13;0.70;;;0.70;;
7887;SDS011;3989;48.810;9.208;2022-08-20T13:00:41;1.27;;;1.20;;
7887;SDS011;3989;48.810;9.208;2022-08-20T13:03:11;1.50;;;1.35;;
7887;SDS011;3989;48.810;9.208;2022-08-20T13:05:38;1.45;;;1.30;;
7887;SDS011;3989;48.810;9.208;2022-08-20T13:08:06;3.55;;;1.95;;
7887;SDS011;3989;48.810;9.208;2022-08-20T13:10:35;2.50;;;1.48;;
7887;SDS011;3989;48.810;9.208;2022-08-20T13:13:06;1.70;;;1.52;;
7887;SDS011;3989;48.810;9.208;2022-08-20T13:15:33;1.10;;;1.10;;
7887;SDS011;3989;48.810;9.208;2022-08-20T13:18:00;2.50;;;1.27;;
7887;SDS011;3989;48.810;9.208;2022-08-20T13:20:30;1.40;;;1.30;;
7887;SDS011;3989;48.810;9.208;2022-08-20T13:23:01;2.20;;;1.20;;
7887;SDS011;3989;48.810;9.208;2022-08-20T13:25:32;1.27;;;1.17;;
7887;SDS011;3989;48.810;9.208;2022-08-20T13:28:11;1.45;;;1.10;;
7887;SDS011;3989;48.810;9.208;2022-08-20T13:34:39;1.30;;;1.15;;
7887;SDS011;3989;48.810;9.208;2022-08-20T13:40:58;1.35;;;1.35;;
7887;SDS011;3989;48.810;9.208;2022-08-20T13:44:47;1.58;;;1.20;;
7887;SDS011;3989;48.810;9.208;2022-08-20T13:47:30;1.73;;;1.17;;
7887;SDS011;3989;48.810;9.208;2022-08-20T13:50:08;1.15;;;1.15;;
7887;SDS011;3989;48.810;9.208;2022-08-20T13:52:47;1.10;;;1.10;;
7887;SDS011;3989;48.810;9.208;2022-08-20T13:55:21;1.27;;;1.27;;
7887;SDS011;3989;48.810;9.208;2022-08-20T13:58:05;1.20;;;1.10;;
7887;SDS011;3989;48.810;9.208;2022-08-20T14:00:35;1.00;;;1.00;;
7887;SDS011;3989;48.810;9.208;2022-08-20T14:03:09;1.02;;;1.00;;
7887;SDS011;3989;48.810;9.208;2022-08-20T14:05:40;1.08;;;1.08;;
7887;SDS011;3989;48.810;9.208;2022-08-20T14:08:11;1.13;;;1.13;;
7887;SDS011;3989;48.810;9.208;2022-08-20T14:10:46;1.10;;;1.10;;
7887;SDS011;3989;48.810;9.208;2022-08-20T14:13:22;1.40;;;1.35;;
7887;SDS011;3989;48.810;9.208;2022-08-20T14:15:50;0.88;;;0.88;;
7887;SDS011;3989;48.810;9.208;2022-08-20T14:18:17;0.90;;;0.90;;
7887;SDS011;3989;48.810;9.208;2022-08-20T14:20:44;0.93;;;0.93;;
7887;SDS011;3989;48.810;9.208;2022-08-20T14:23:11;0.80;;;0.80;;
7887;SDS011;3989;48.810;9.208;2022-08-20T14:25:38;1.10;;;1.10;;
7887;SDS011;3989;48.810;9.208;2022-08-20T14:28:12;1.35;;;0.90;;
7887;SDS011;3989;48.810;9.208;2022-08-20T14:30:59;1.00;;;1.00;;
7887;SDS011;3989;48.810;9.208;2022-08-20T14:33:26;0.93;;;0.93;;
7887;SDS011;3989;48.810;9.208;2022-08-20T14:36:01;1.20;;;1.10;;
7887;SDS011;3989;48.810;9.208;2022-08-20T14:38:30;1.35;;;1.00;;
7887;SDS011;3989;48.810;9.208;2022-08-20T14:40:57;0.98;;;0.98;;
7887;SDS011;3989;48.810;9.208;2022-08-20T14:43:26;1.10;;;1.10;;
7887;SDS011;3989;48.810;9.208;2022-08-20T14:45:55;0.70;;;0.70;;
7887;SDS011;3989;48.810;9.208;2022-08-20T14:48:32;0.98;;;0.98;;
7887;SDS011;3989;48.810;9.208;2022-08-20T14:51:01;1.35;;;1.05;;
7887;SDS011;3989;48.810;9.208;2022-08-20T14:53:35;1.15;;;1.05;;
7887;SDS011;3989;48.810;9.208;2022-08-20T15:01:59;0.90;;;0.90;;
7887;SDS011;3989;48.810;9.208;2022-08-20T15:04:35;0.95;;;0.95;;
7887;SDS011;3989;48.810;9.208;2022-08-20T15:07:13;1.13;;;1.13;;
7887;SDS011;3989;48.810;9.208;2022-08-20T15:10:05;0.90;;;0.90;;
7887;SDS011;3989;48.810;9.208;2022-08-20T15:13:02;0.70;;;0.70;;
7887;SDS011;3989;48.810;9.208;2022-08-20T15:16:03;1.17;;;1.08;;
7887;SDS011;3989;48.810;9.208;2022-08-20T15:18:37;0.90;;;0.90;;
7887;SDS011;3989;48.810;9.208;2022-08-20T15:24:15;1.00;;;1.00;;
7887;SDS011;3989;48.810;9.208;2022-08-20T15:26:55;1.02;;;1.02;;
7887;SDS011;3989;48.810;9.208;2022-08-20T15:29:43;1.00;;;1.00;;
7887;SDS011;3989;48.810;9.208;2022-08-20T15:35:11;0.82;;;0.82;;
7887;SDS011;3989;48.810;9.208;2022-08-20T15:38:24;0.80;;;0.80;;
7887;SDS011;3989;48.810;9.208;2022-08-20T15:40:45;0.68;;;0.68;;
7887;SDS011;3989;48.810;9.208;2022-08-20T15:43:30;1.85;;;0.90;;
7887;SDS011;3989;48.810;9.208;2022-08-20T15:46:14;0.70;;;0.70;;
7887;SDS011;3989;48.810;9.208;2022-08-20T15:48:45;0.95;;;0.85;;
7887;SDS011;3989;48.810;9.208;2022-08-20T15:51:24;0.88;;;0.88;;
7887;SDS011;3989;48.810;9.208;2022-08-20T15:53:58;1.95;;;0.90;;
7887;SDS011;3989;48.810;9.208;2022-08-20T15:56:31;1.08;;;0.98;;
7887;SDS011;3989;48.810;9.208;2022-08-20T15:59:08;0.77;;;0.77;;
7887;SDS011;3989;48.810;9.208;2022-08-20T16:01:42;0.77;;;0.77;;
7887;SDS011;3989;48.810;9.208;2022-08-20T16:04:22;0.88;;;0.88;;
7887;SDS011;3989;48.810;9.208;2022-08-20T16:07:01;1.00;;;1.00;;
7887;SDS011;3989;48.810;9.208;2022-08-20T16:09:37;1.42;;;1.33;;
7887;SDS011;3989;48.810;9.208;2022-08-20T16:12:18;0.90;;;0.90;;
7887;SDS011;3989;48.810;9.208;2022-08-20T16:14:56;1.45;;;1.35;;
7887;SDS011;3989;48.810;9.208;2022-08-20T16:17:29;1.10;;;1.10;;
7887;SDS011;3989;48.810;9.208;2022-08-20T16:20:05;0.80;;;0.80;;
7887;SDS011;3989;48.810;9.208;2022-08-20T16:22:36;2.38;;;1.65;;